Data for 08/03/2014

Time Sea-Level Adjusted Pressure Absolute Pressure Temperature Relative Humidity Dew Point   
(mb) (inHg) (mb) (inHg) (C) (F) (%) (C) (F)
00:05 1023 30.21 852 25.16 16 60.8 58 7.9 46.3
00:10 1023 30.21 852 25.16 15.8 60.4 59 7.8 46.1
00:15 1023 30.21 852 25.16 15.7 60.3 60 7.9 46.3
00:20 1023 30.21 852 25.16 15.7 60.3 58 7.5 45.6
00:25 1023 30.21 852 25.16 15.9 60.6 59 7.9 46.2
00:30 1023 30.21 852 25.16 15.9 60.6 57 7.6 45.6
00:35 1023 30.21 852 25.16 16.1 60.9 59 8 46.4
00:40 1023 30.21 853 25.19 16.1 60.9 58 7.9 46.2
00:45 1023 30.21 853 25.19 16 60.8 57 7.7 45.8
00:50 1023 30.21 853 25.19 16 60.9 57 7.6 45.7
00:55 1023 30.21 853 25.19 16.1 61 56 7.5 45.5
01:00 1023 30.21 853 25.19 16.2 61.2 57 7.8 46
01:05 1023 30.21 853 25.19 16.1 60.9 57 7.7 45.9
01:10 1023 30.21 853 25.19 16.1 60.9 62 8.8 47.9
01:15 1023 30.21 853 25.19 16.1 61 58 7.9 46.2
01:20 1023 30.21 853 25.19 16 60.8 59 8.1 46.5
01:25 1023 30.21 853 25.19 15.7 60.3 60 8 46.3
01:30 1023 30.21 853 25.19 15.4 59.6 61 7.9 46.3
01:35 1023 30.21 852 25.16 15 58.9 63 8.1 46.6
01:40 1023 30.21 852 25.16 14.4 57.9 66 8.2 46.7
01:45 1023 30.21 852 25.16 14 57.2 66 7.7 45.9
01:50 1023 30.21 852 25.16 13.9 57 66 7.8 46
01:55 1023 30.21 852 25.16 14 57.1 65 7.5 45.4
02:00 1023 30.21 852 25.16 14.4 57.9 63 7.6 45.7
02:05 1023 30.21 852 25.16 14.5 58.1 64 7.8 46
02:10 1023 30.21 852 25.16 14.7 58.5 62 7.6 45.7
02:15 1023 30.21 852 25.16 14.8 58.7 62 7.7 45.9
02:20 1023 30.21 852 25.16 14.7 58.4 62 7.6 45.7
02:25 1023 30.21 852 25.16 14.7 58.4 61 7.3 45.2
02:30 1023 30.21 852 25.16 14.8 58.6 61 7.3 45.2
02:35 1023 30.21 852 25.16 14.6 58.2 61 7.3 45.2
02:40 1023 30.21 852 25.16 14.3 57.8 63 7.5 45.4
02:45 1023 30.21 852 25.16 13.9 57.1 64 7.3 45.2
02:50 1023 30.21 853 25.19 13.8 56.9 63 7.1 44.7
02:55 1023 30.21 853 25.19 14.1 57.3 62 6.9 44.4
03:00 1023 30.21 853 25.19 14 57.1 64 7.3 45.2
03:05 1023 30.21 852 25.16 13.8 56.9 63 7 44.7
03:10 1023 30.21 852 25.16 13.7 56.7 64 7 44.6
03:15 1023 30.21 852 25.16 13.7 56.6 63 6.9 44.5
03:20 1023 30.21 853 25.19 13.8 56.8 63 7 44.6
03:25 1023 30.21 853 25.19 14.3 57.7 62 7.2 44.9
03:30 1023 30.21 852 25.16 14.8 58.6 62 7.6 45.6
03:35 1023 30.21 852 25.16 14.6 58.2 63 7.7 45.8
03:40 1023 30.21 852 25.16 14.2 57.6 64 7.6 45.7
03:45 1023 30.21 852 25.16 14.1 57.3 64 7.4 45.3
03:50 1023 30.21 852 25.16 13.8 56.9 65 7.5 45.6
03:55 1023 30.21 852 25.16 13.6 56.5 64 7 44.6
04:00 1023 30.21 852 25.16 13.7 56.6 64 7 44.5
04:05 1023 30.21 852 25.16 14 57.2 63 7.2 44.9
04:10 1023 30.21 852 25.16 13.7 56.7 65 7.2 45
04:15 1023 30.21 853 25.19 14 57.1 63 7.2 44.9
04:20 1023 30.21 853 25.19 13.9 57.1 64 7.3 45.1
04:25 1024 30.24 853 25.19 13.6 56.5 65 7.3 45.1
04:30 1023 30.21 853 25.19 13.6 56.5 65 7.2 45
04:35 1024 30.24 853 25.19 13.6 56.5 65 7.2 45
04:40 1024 30.24 853 25.19 13.6 56.5 65 7.2 45
04:45 1024 30.24 853 25.19 13.6 56.4 65 7.2 44.9
04:50 1024 30.24 853 25.19 13.6 56.5 65 7.3 45.1
04:55 1024 30.24 853 25.19 13.7 56.6 65 7.4 45.3
05:00 1024 30.24 853 25.19 14 57.2 64 7.4 45.3
05:05 1024 30.24 853 25.19 14.3 57.7 62 7.3 45.1
05:10 1024 30.24 853 25.19 14.6 58.3 61 7.3 45.2
05:15 1024 30.24 853 25.19 14.4 58 62 7.2 45
05:20 1025 30.27 854 25.22 14.6 58.2 60 7 44.6
05:25 1025 30.27 854 25.22 14.4 57.9 61 7.1 44.8
05:30 1025 30.27 854 25.22 14 57.2 61 6.7 44.1
05:35 1025 30.27 854 25.22 13.8 56.9 61 6.6 43.9
05:40 1025 30.27 854 25.22 14 57.3 62 6.9 44.3
05:45 1025 30.27 854 25.22 14 57.1 62 6.8 44.2
05:50 1025 30.27 854 25.22 14.1 57.3 62 7.1 44.7
05:55 1025 30.27 854 25.22 14 57.1 63 7.1 44.7
06:00 1025 30.27 854 25.22 14 57.1 63 7 44.6
06:05 1025 30.27 854 25.22 14 57.2 63 7.2 44.9
06:10 1025 30.27 854 25.22 14 57.3 63 7.3 45.1
06:15 1025 30.27 854 25.22 14.2 57.6 62 7.1 44.7
06:20 1025 30.27 854 25.22 14.3 57.7 62 7.1 44.8
06:25 1025 30.27 854 25.22 14.5 58 63 7.6 45.7
06:30 1025 30.27 854 25.22 14.2 57.6 65 7.7 45.9
06:35 1025 30.27 854 25.22 14 57.3 67 8 46.3
06:40 1024 30.24 854 25.22 14 57.3 66 7.9 46.3
06:45 1024 30.24 853 25.19 14.2 57.5 64 7.5 45.5
06:50 1024 30.24 853 25.19 14.5 58.1 63 7.5 45.6
06:55 1023 30.21 853 25.19 14.6 58.3 63 7.8 46
07:00 1023 30.21 852 25.16 14.6 58.4 64 8 46.4
07:05 1023 30.21 853 25.19 14.7 58.5 64 8 46.4
07:10 1023 30.21 853 25.19 14.8 58.7 63 8 46.4
07:15 1024 30.24 853 25.19 15 59 63 8 46.5
07:20 1024 30.24 853 25.19 15.2 59.4 61 7.9 46.3
07:25 1024 30.24 853 25.19 15.6 60.1 58 7.4 45.4
07:30 1024 30.24 853 25.19 16.3 61.4 58 8.1 46.5
07:35 1024 30.24 853 25.19 16.7 62.1 57 8.2 46.7
07:40 1024 30.24 853 25.19 16.9 62.4 56 8.2 46.8
07:45 1024 30.24 854 25.22 17 62.6 56 8.3 46.9
07:50 1025 30.27 854 25.22 17.1 62.8 56 8.3 47
07:55 1025 30.27 854 25.22 17 62.6 56 8.3 47
08:00 1025 30.27 854 25.22 17.2 62.9 57 8.8 47.8
08:05 1025 30.27 854 25.22 17.4 63.3 56 8.6 47.6
08:10 1025 30.27 854 25.22 17.5 63.5 59 9.4 48.9
08:15 1025 30.27 854 25.22 18.2 64.7 56 9.4 48.9
08:20 1025 30.27 854 25.22 19.2 66.5 53 9.5 49.1
08:25 1025 30.27 854 25.22 19 66.1 54 9.5 49.1
08:30 1024 30.24 854 25.22 18.7 65.6 54 9.3 48.8
08:35 1024 30.24 853 25.19 18.5 65.4 50 8 46.4
08:40 1024 30.24 853 25.19 18.4 65.1 51 8.3 46.9
08:45 1024 30.24 853 25.19 18.6 65.4 55 9.3 48.8
08:50 1024 30.24 853 25.19 18.7 65.7 53 9.1 48.4
08:55 1024 30.24 853 25.19 19.2 66.5 50 8.6 47.5
09:00 1024 30.24 853 25.19 19.5 67.1 48 8.2 46.7
09:05 1024 30.24 853 25.19 19.7 67.4 50 9.2 48.6
09:10 1024 30.24 853 25.19 19.8 67.6 51 9.6 49.3
09:15 1024 30.24 853 25.19 19.7 67.5 48 8.7 47.6
09:20 1024 30.24 853 25.19 20 68.1 48 8.7 47.7
09:25 1024 30.24 853 25.19 20.7 69.3 44 8.2 46.7
09:30 1024 30.24 853 25.19 21.6 70.8 42 8.4 47
09:35 1024 30.24 853 25.19 21.4 70.4 44 8.8 47.8
09:40 1024 30.24 853 25.19 22 71.5 38 7.2 45
09:45 1024 30.24 853 25.19 22.5 72.5 36 6.8 44.2
09:50 1024 30.24 853 25.19 22.6 72.7 38 7.9 46.3
09:55 1024 30.24 853 25.19 22.8 73.1 35 6.8 44.2
10:00 1024 30.24 853 25.19 22.9 73.2 34 6.2 43.2
10:05 1024 30.24 853 25.19 23.4 74.2 33 6.4 43.6
10:10 1024 30.24 853 25.19 22.9 73.2 35 7 44.5
10:15 1024 30.24 853 25.19 23.4 74 33 6.6 43.9
10:20 1024 30.24 853 25.19 23.4 74 34 6.7 44
10:25 1024 30.24 853 25.19 24.1 75.4 32 6.5 43.8
10:30 1024 30.24 853 25.19 25 76.9 31 7 44.6
10:35 1024 30.24 853 25.19 24.5 76.2 31 6.5 43.7
10:40 1024 30.24 853 25.19 25.3 77.6 29 6.2 43.2
10:45 1024 30.24 853 25.19 25.7 78.2 29 6.5 43.7
10:50 1024 30.24 853 25.19 25.8 78.5 28 6.4 43.5
10:55 1024 30.24 853 25.19 25.7 78.3 28 6 42.8
11:00 1024 30.24 853 25.19 26 78.8 29 6.6 43.9
11:05 1024 30.24 853 25.19 26 78.8 28 6.2 43.1
11:10 1024 30.24 853 25.19 26.1 78.9 28 6.4 43.5
11:15 1024 30.24 853 25.19 26 78.8 28 6.3 43.3
11:20 1024 30.24 853 25.19 26.6 79.8 27 6.5 43.8
11:25 1024 30.24 853 25.19 26.3 79.4 26 5.4 41.7
11:30 1024 30.24 853 25.19 26.6 79.8 24 4.8 40.7
11:35 1024 30.24 853 25.19 25.7 78.3 27 5.5 41.9
11:40 1023 30.21 853 25.19 26.2 79.1 27 5.9 42.6
11:45 1023 30.21 853 25.19 27 80.5 26 6 42.8
11:50 1023 30.21 853 25.19 27 80.6 25 5.6 42.1
11:55 1023 30.21 853 25.19 25.9 78.6 27 5.6 42.1
12:00 1023 30.21 852 25.16 25.5 77.8 27 5.4 41.7
12:05 1023 30.21 852 25.16 26.1 79 25 4.9 40.9
12:10 1023 30.21 852 25.16 26.5 79.6 25 5.2 41.3
12:15 1023 30.21 852 25.16 26.8 80.2 24 5 41
12:20 1023 30.21 852 25.16 27.4 81.3 23 4.7 40.5
12:25 1023 30.21 852 25.16 27.6 81.7 24 5.6 42
12:30 1023 30.21 852 25.16 28 82.3 23 5.5 41.9
12:35 1023 30.21 852 25.16 28.5 83.2 22 5 40.9
12:40 1023 30.21 852 25.16 28.8 83.8 21 4.5 40.2
12:45 1023 30.21 852 25.16 28.7 83.6 21 4.8 40.6
12:50 1023 30.21 852 25.16 28.5 83.3 23 5.5 41.9
12:55 1023 30.21 852 25.16 28.1 82.7 22 5 40.9
13:00 1023 30.21 852 25.16 28.4 83.1 22 5.1 41.3
13:05 1023 30.21 852 25.16 28.4 83.2 23 5.6 42.1
13:10 1023 30.21 852 25.16 27.8 82.1 23 5.3 41.5
13:15 1023 30.21 852 25.16 27.8 82.1 24 5.7 42.3
13:20 1023 30.21 852 25.16 28 82.3 24 5.9 42.5
13:25 1022 30.18 852 25.16 28.3 83 21 4.4 39.9
13:30 1022 30.18 852 25.16 28.2 82.8 21 4.2 39.5
13:35 1022 30.18 852 25.16 28.1 82.7 23 5.3 41.5
13:40 1022 30.18 851 25.13 27.6 81.6 23 4.9 40.8
13:45 1022 30.18 851 25.13 27.5 81.5 23 4.7 40.5
13:50 1022 30.18 851 25.13 28.5 83.2 21 4.5 40.1
13:55 1022 30.18 851 25.13 29.3 84.7 19 3.3 37.9
14:00 1022 30.18 851 25.13 29.6 85.2 20 4.5 40.1
14:05 1022 30.18 851 25.13 29.6 85.3 18 3.1 37.6
14:10 1022 30.18 851 25.13 30 85.9 18 3.8 38.8
14:15 1022 30.18 851 25.13 29.7 85.5 19 4.2 39.5
14:20 1022 30.18 851 25.13 29.5 85.2 19 3.7 38.6
14:25 1022 30.18 851 25.13 29.7 85.4 19 4.3 39.7
14:30 1022 30.18 851 25.13 29.8 85.6 19 4.2 39.6
14:35 1022 30.18 851 25.13 29.4 84.9 19 3.8 38.8
14:40 1022 30.18 851 25.13 29.3 84.7 19 3.4 38.2
14:45 1022 30.18 851 25.13 29.7 85.5 19 3.6 38.6
14:50 1022 30.18 851 25.13 29.7 85.4 19 4.3 39.7
14:55 1022 30.18 851 25.13 30.1 86.1 19 4.6 40.3
15:00 1022 30.18 851 25.13 29.9 85.8 19 4.2 39.5
15:05 1022 30.18 851 25.13 29 84.2 20 4 39.2
15:10 1022 30.18 851 25.13 29 84.2 20 4 39.2
15:15 1022 30.18 851 25.13 29.2 84.5 19 3.6 38.5
15:20 1021 30.15 851 25.13 28.7 83.7 19 3.2 37.7
15:25 1021 30.15 851 25.13 29.1 84.3 19 3.4 38.1
15:30 1021 30.15 851 25.13 28.9 83.9 18 2.8 37.1
15:35 1021 30.15 851 25.13 29.1 84.5 18 2.9 37.2
15:40 1021 30.15 851 25.13 29 84.2 19 3.1 37.6
15:45 1021 30.15 850 25.1 28.6 83.5 19 2.9 37.2
15:50 1021 30.15 850 25.1 28 82.4 20 3.4 38.2
15:55 1021 30.15 850 25.1 28.3 82.9 20 3.3 37.9
16:00 1021 30.15 850 25.1 28.7 83.6 19 3.1 37.5
16:05 1021 30.15 850 25.1 28.4 83 20 3.4 38.2
16:10 1021 30.15 850 25.1 28.2 82.7 19 2.4 36.4
16:15 1021 30.15 850 25.1 28.1 82.5 19 2.6 36.7
16:20 1021 30.15 850 25.1 28.3 83 18 1.7 35.1
16:25 1021 30.15 850 25.1 28.2 82.7 18 2.2 36
16:30 1021 30.15 850 25.1 28.3 82.9 18 2 35.6
16:35 1021 30.15 850 25.1 28.2 82.7 18 2.1 35.7
16:40 1021 30.15 850 25.1 28.4 83.2 19 2.9 37.2
16:45 1021 30.15 850 25.1 28.7 83.6 17 1.9 35.5
16:50 1021 30.15 850 25.1 29.1 84.3 18 2.8 37
16:55 1021 30.15 850 25.1 28.8 83.8 18 2.5 36.5
17:00 1021 30.15 850 25.1 28.7 83.7 18 2.6 36.6
17:05 1021 30.15 850 25.1 29.2 84.5 17 2.2 35.9
17:10 1021 30.15 850 25.1 28.9 84 17 2 35.5
17:15 1021 30.15 850 25.1 29 84.2 17 1.8 35.3
17:20 1021 30.15 850 25.1 28.9 84.1 18 2.4 36.4
17:25 1021 30.15 850 25.1 29.1 84.4 17 2.3 36.1
17:30 1021 30.15 850 25.1 29.1 84.3 17 2.1 35.8
17:35 1021 30.15 850 25.1 29 84.2 18 2.2 36
17:40 1021 30.15 850 25.1 29 84.1 18 2.3 36.2
17:45 1021 30.15 850 25.1 28.8 83.9 18 2.7 36.8
17:50 1021 30.15 850 25.1 28.8 83.8 18 2.4 36.3
17:55 1021 30.15 850 25.1 29 84.1 18 2.8 37.1
18:00 1021 30.15 850 25.1 28.8 83.8 18 2.4 36.4
18:05 1021 30.15 850 25.1 28.4 83.2 18 2.4 36.3
18:10 1021 30.15 850 25.1 28.4 83.1 19 2.9 37.2
18:15 1021 30.15 850 25.1 28.3 82.9 19 2.8 37.1
18:20 1021 30.15 850 25.1 28.2 82.7 20 3.7 38.6
18:25 1021 30.15 850 25.1 28.1 82.6 21 3.9 39.1
18:30 1021 30.15 850 25.1 28 82.4 19 2.6 36.7
18:35 1021 30.15 850 25.1 27.8 82 24 5.5 41.9
18:40 1021 30.15 850 25.1 27.1 80.8 23 4.4 39.9
18:45 1021 30.15 850 25.1 27 80.6 23 4.5 40
18:50 1021 30.15 850 25.1 26.9 80.5 23 4.4 39.9
18:55 1021 30.15 850 25.1 26.8 80.2 25 5.6 42.1
19:00 1021 30.15 850 25.1 26.6 79.8 25 5.3 41.5
19:05 1021 30.15 850 25.1 26.5 79.7 26 5.7 42.3
19:10 1021 30.15 850 25.1 26.4 79.5 30 7.8 46
19:15 1021 30.15 850 25.1 25.8 78.4 33 8.4 47.1
19:20 1021 30.15 850 25.1 25.5 77.8 34 8.7 47.6
19:25 1021 30.15 850 25.1 25.2 77.3 34 8.5 47.4
19:30 1021 30.15 850 25.1 24.8 76.6 37 9.2 48.5
19:35 1021 30.15 850 25.1 24.4 75.9 36 8.5 47.2
19:40 1021 30.15 850 25.1 23.9 74.9 34 7.2 45
19:45 1021 30.15 850 25.1 23.2 73.8 38 8.1 46.6
19:50 1021 30.15 850 25.1 22.8 73 35 6.9 44.4
19:55 1021 30.15 850 25.1 22.7 72.8 37 7.6 45.6
20:00 1021 30.15 850 25.1 22.3 72.2 42 9.1 48.3
20:05 1021 30.15 850 25.1 22.3 72.1 39 7.8 46.1
20:10 1021 30.15 850 25.1 22.2 71.9 43 9.1 48.3
20:15 1021 30.15 850 25.1 22 71.7 41 8.2 46.7
20:20 1021 30.15 850 25.1 22.3 72.1 35 6.2 43.2
20:25 1021 30.15 851 25.13 22.4 72.3 34 6 42.8
20:30 1021 30.15 851 25.13 22.1 71.8 34 5.9 42.6
20:35 1021 30.15 851 25.13 22.1 71.8 34 5.6 42.1
20:40 1021 30.15 851 25.13 21.8 71.3 33 4.9 40.8
20:45 1021 30.15 851 25.13 21.7 71.1 35 5.8 42.5
20:50 1021 30.15 851 25.13 21.2 70.2 36 5.6 42.1
20:55 1021 30.15 851 25.13 20.8 69.5 37 5.6 42.1
21:00 1021 30.15 851 25.13 20.6 69.1 38 6 42.9
21:05 1021 30.15 851 25.13 20.4 68.6 38 5.6 42.1
21:10 1021 30.15 851 25.13 20.3 68.6 35 4.4 40
21:15 1021 30.15 851 25.13 20.7 69.2 33 3.8 38.9
21:20 1021 30.15 851 25.13 21.2 70.2 33 4.4 39.9
21:25 1021 30.15 851 25.13 21.3 70.3 32 4 39.3
21:30 1021 30.15 851 25.13 21 69.8 32 3.9 39.1
21:35 1021 30.15 851 25.13 20.8 69.5 33 4 39.2
21:40 1021 30.15 851 25.13 20.6 69 34 4.5 40.1
21:45 1021 30.15 851 25.13 20.3 68.5 34 4.1 39.4
21:50 1021 30.15 851 25.13 20.3 68.5 34 4.1 39.4
21:55 1021 30.15 851 25.13 20.2 68.3 35 4.2 39.6
22:00 1021 30.15 851 25.13 20 68.1 35 4.5 40
22:05 1021 30.15 851 25.13 19.9 67.7 35 4.1 39.5
22:10 1021 30.15 851 25.13 20 68 34 3.9 39.1
22:15 1021 30.15 851 25.13 20 68 35 4.4 39.9
22:20 1021 30.15 851 25.13 19.9 67.8 35 4.1 39.4
22:25 1021 30.15 851 25.13 20 68.1 35 4.2 39.6
22:30 1021 30.15 851 25.13 20.1 68.3 34 4.1 39.4
22:35 1021 30.15 851 25.13 20.3 68.5 34 3.9 39.1
22:40 1021 30.15 851 25.13 20.1 68.2 36 4.8 40.7
22:45 1021 30.15 851 25.13 20 68 35 4.1 39.4
22:50 1021 30.15 851 25.13 19.8 67.6 35 4.1 39.3
22:55 1021 30.15 851 25.13 19.6 67.3 36 4.1 39.4
23:00 1021 30.15 851 25.13 19.5 67.2 36 4.3 39.8
23:05 1022 30.18 851 25.13 19.7 67.4 34 3.6 38.6
23:10 1022 30.18 851 25.13 19.8 67.6 36 4.4 39.9
23:15 1022 30.18 851 25.13 19.7 67.5 35 3.9 39.1
23:20 1022 30.18 851 25.13 19.9 67.7 34 3.7 38.7
23:25 1022 30.18 851 25.13 20.2 68.4 39 5.8 42.5
23:30 1022 30.18 851 25.13 20.1 68.1 38 5.6 42
23:35 1022 30.18 851 25.13 19.6 67.3 36 4.4 39.9
23:40 1022 30.18 851 25.13 19.3 66.8 39 5 41
23:45 1022 30.18 851 25.13 19 66.2 40 5.1 41.1
23:50 1022 30.18 851 25.13 18.6 65.5 40 4.8 40.6
23:55 1022 30.18 851 25.13 18.7 65.6 40 4.9 40.8
24:00 1022 30.18 851 25.13 18.7 65.6 42 5.6 42.2